sensor_id;sensor_type;location;lat;lon;timestamp;pressure;altitude;pressure_sealevel;temperature;humidity
40205;BME280;26963;42.666;23.366;2023-06-24T00:02:04;94953.72;;;24.33;53.70
40205;BME280;26963;42.666;23.366;2023-06-24T00:04:29;94935.66;;;24.17;53.73
40205;BME280;26963;42.666;23.366;2023-06-24T00:06:55;94917.91;;;23.97;53.95
40205;BME280;26963;42.666;23.366;2023-06-24T00:09:27;94953.66;;;24.25;54.08
40205;BME280;26963;42.666;23.366;2023-06-24T00:11:56;94895.94;;;23.82;54.20
40205;BME280;26963;42.666;23.366;2023-06-24T00:14:22;94901.47;;;23.89;54.11
40205;BME280;26963;42.666;23.366;2023-06-24T00:16:53;94938.75;;;24.12;54.43
40205;BME280;26963;42.666;23.366;2023-06-24T00:19:20;94938.69;;;24.05;54.78
40205;BME280;26963;42.666;23.366;2023-06-24T00:21:46;94928.09;;;24.00;55.09
40205;BME280;26963;42.666;23.366;2023-06-24T00:24:12;94924.47;;;23.88;54.59
40205;BME280;26963;42.666;23.366;2023-06-24T00:26:38;94952.00;;;24.10;54.65
40205;BME280;26963;42.666;23.366;2023-06-24T00:29:03;94918.25;;;23.88;55.22
40205;BME280;26963;42.666;23.366;2023-06-24T00:31:29;94923.00;;;23.94;54.69
40205;BME280;26963;42.666;23.366;2023-06-24T00:33:55;94919.38;;;23.83;54.81
40205;BME280;26963;42.666;23.366;2023-06-24T00:36:21;94949.63;;;24.05;54.70
40205;BME280;26963;42.666;23.366;2023-06-24T00:38:48;94954.38;;;24.15;54.47
40205;BME280;26963;42.666;23.366;2023-06-24T00:41:16;94891.56;;;23.70;54.76
40205;BME280;26963;42.666;23.366;2023-06-24T00:43:42;94902.09;;;23.72;54.98
40205;BME280;26963;42.666;23.366;2023-06-24T00:46:07;94805.19;;;23.10;54.71
40205;BME280;26963;42.666;23.366;2023-06-24T00:48:33;94941.00;;;23.99;54.79
40205;BME280;26963;42.666;23.366;2023-06-24T00:50:59;94937.47;;;23.99;54.93
40205;BME280;26963;42.666;23.366;2023-06-24T00:53:25;94940.16;;;23.95;55.17
40205;BME280;26963;42.666;23.366;2023-06-24T00:55:51;94941.34;;;23.98;55.33
40205;BME280;26963;42.666;23.366;2023-06-24T00:58:18;94947.22;;;24.00;55.09
40205;BME280;26963;42.666;23.366;2023-06-24T01:00:47;94932.34;;;23.93;55.10
40205;BME280;26963;42.666;23.366;2023-06-24T01:03:14;94926.88;;;23.93;55.18
40205;BME280;26963;42.666;23.366;2023-06-24T01:05:48;94886.78;;;23.60;55.11
40205;BME280;26963;42.666;23.366;2023-06-24T01:08:15;94936.56;;;23.87;55.32
40205;BME280;26963;42.666;23.366;2023-06-24T01:10:42;94939.22;;;23.76;55.96
40205;BME280;26963;42.666;23.366;2023-06-24T01:13:08;94941.56;;;23.78;55.57
40205;BME280;26963;42.666;23.366;2023-06-24T01:15:35;94935.31;;;23.77;55.64
40205;BME280;26963;42.666;23.366;2023-06-24T01:18:22;94932.94;;;23.76;55.45
40205;BME280;26963;42.666;23.366;2023-06-24T01:20:55;94922.00;;;23.72;55.28
40205;BME280;26963;42.666;23.366;2023-06-24T01:27:00;94780.63;;;22.65;55.46
40205;BME280;26963;42.666;23.366;2023-06-24T01:35:04;94863.59;;;23.02;56.11
40205;BME280;26963;42.666;23.366;2023-06-24T01:37:45;94889.97;;;23.24;56.37
40205;BME280;26963;42.666;23.366;2023-06-24T01:42:51;94933.16;;;23.53;56.31
40205;BME280;26963;42.666;23.366;2023-06-24T01:45:30;94919.47;;;23.49;56.33
40205;BME280;26963;42.666;23.366;2023-06-24T01:48:06;94949.91;;;23.55;55.91
40205;BME280;26963;42.666;23.366;2023-06-24T01:50:34;94900.88;;;23.24;55.65
40205;BME280;26963;42.666;23.366;2023-06-24T01:53:05;94954.69;;;23.61;55.44
40205;BME280;26963;42.666;23.366;2023-06-24T01:55:32;94907.09;;;23.21;55.57
40205;BME280;26963;42.666;23.366;2023-06-24T01:58:01;94918.50;;;23.31;56.10
40205;BME280;26963;42.666;23.366;2023-06-24T02:00:29;94944.06;;;23.53;56.60
40205;BME280;26963;42.666;23.366;2023-06-24T02:02:55;94950.81;;;23.66;56.23
40205;BME280;26963;42.666;23.366;2023-06-24T02:05:23;94963.34;;;23.71;56.25
40205;BME280;26963;42.666;23.366;2023-06-24T02:07:51;94956.25;;;23.63;56.51
40205;BME280;26963;42.666;23.366;2023-06-24T02:10:18;94951.44;;;23.49;56.90
40205;BME280;26963;42.666;23.366;2023-06-24T02:12:47;94974.19;;;23.60;57.02
40205;BME280;26963;42.666;23.366;2023-06-24T02:15:14;94967.84;;;23.52;57.04
40205;BME280;26963;42.666;23.366;2023-06-24T02:17:40;94926.28;;;23.28;56.82
40205;BME280;26963;42.666;23.366;2023-06-24T02:20:08;94969.47;;;23.57;56.90
40205;BME280;26963;42.666;23.366;2023-06-24T02:22:37;94946.63;;;23.35;57.34
40205;BME280;26963;42.666;23.366;2023-06-24T02:25:05;94930.47;;;23.19;57.57
40205;BME280;26963;42.666;23.366;2023-06-24T02:27:32;94899.38;;;22.96;57.74
40205;BME280;26963;42.666;23.366;2023-06-24T02:29:59;94985.41;;;23.51;57.61
40205;BME280;26963;42.666;23.366;2023-06-24T02:32:25;94968.09;;;23.36;57.95
40205;BME280;26963;42.666;23.366;2023-06-24T02:34:51;94993.03;;;23.35;58.29
40205;BME280;26963;42.666;23.366;2023-06-24T02:37:17;95012.25;;;23.45;57.97
40205;BME280;26963;42.666;23.366;2023-06-24T02:39:43;95012.97;;;23.39;58.14
40205;BME280;26963;42.666;23.366;2023-06-24T02:42:12;94996.84;;;23.26;58.55
40205;BME280;26963;42.666;23.366;2023-06-24T02:44:42;95006.94;;;23.22;59.27
40205;BME280;26963;42.666;23.366;2023-06-24T02:47:10;95006.88;;;23.19;59.39
40205;BME280;26963;42.666;23.366;2023-06-24T02:49:38;95017.41;;;23.20;59.37
40205;BME280;26963;42.666;23.366;2023-06-24T02:52:05;95021.41;;;23.26;59.19
40205;BME280;26963;42.666;23.366;2023-06-24T02:54:31;95009.19;;;23.17;59.41
40205;BME280;26963;42.666;23.366;2023-06-24T02:56:58;95004.84;;;23.12;59.48
40205;BME280;26963;42.666;23.366;2023-06-24T02:59:24;94998.06;;;23.02;59.66
40205;BME280;26963;42.666;23.366;2023-06-24T03:01:51;94994.06;;;22.92;59.90
40205;BME280;26963;42.666;23.366;2023-06-24T03:04:18;95007.69;;;22.92;60.10
40205;BME280;26963;42.666;23.366;2023-06-24T03:06:44;95006.13;;;22.91;60.33
40205;BME280;26963;42.666;23.366;2023-06-24T03:09:10;95040.66;;;23.10;60.59
40205;BME280;26963;42.666;23.366;2023-06-24T03:11:42;95032.78;;;23.05;60.79
40205;BME280;26963;42.666;23.366;2023-06-24T03:14:09;95022.59;;;22.99;60.88
40205;BME280;26963;42.666;23.366;2023-06-24T03:16:35;95029.28;;;23.05;60.62
40205;BME280;26963;42.666;23.366;2023-06-24T03:19:01;95035.19;;;23.07;60.80
40205;BME280;26963;42.666;23.366;2023-06-24T03:21:27;95040.66;;;23.10;60.50
40205;BME280;26963;42.666;23.366;2023-06-24T03:23:54;94970.91;;;22.79;60.43
40205;BME280;26963;42.666;23.366;2023-06-24T03:26:20;95006.31;;;23.06;60.33
40205;BME280;26963;42.666;23.366;2023-06-24T03:28:46;95028.34;;;23.20;60.30
40205;BME280;26963;42.666;23.366;2023-06-24T03:31:11;95039.25;;;23.20;60.19
40205;BME280;26963;42.666;23.366;2023-06-24T03:33:37;95047.13;;;23.25;60.23
40205;BME280;26963;42.666;23.366;2023-06-24T03:36:03;95062.09;;;23.39;60.33
40205;BME280;26963;42.666;23.366;2023-06-24T03:38:28;95056.28;;;23.40;59.95
40205;BME280;26963;42.666;23.366;2023-06-24T03:40:54;94996.97;;;23.07;59.93
40205;BME280;26963;42.666;23.366;2023-06-24T03:43:19;95023.78;;;23.32;60.00
40205;BME280;26963;42.666;23.366;2023-06-24T03:45:45;95061.19;;;23.61;59.90
40205;BME280;26963;42.666;23.366;2023-06-24T03:48:11;95048.44;;;23.73;59.71
40205;BME280;26963;42.666;23.366;2023-06-24T03:50:36;95068.97;;;23.93;59.57
40205;BME280;26963;42.666;23.366;2023-06-24T03:53:03;95056.50;;;23.96;59.08
40205;BME280;26963;42.666;23.366;2023-06-24T03:55:29;95068.78;;;24.13;58.68
40205;BME280;26963;42.666;23.366;2023-06-24T03:57:55;95060.63;;;24.20;58.46
40205;BME280;26963;42.666;23.366;2023-06-24T04:00:20;95056.44;;;24.34;57.74
40205;BME280;26963;42.666;23.366;2023-06-24T04:02:46;95062.50;;;24.57;57.09
40205;BME280;26963;42.666;23.366;2023-06-24T04:05:12;95045.78;;;24.70;56.09
40205;BME280;26963;42.666;23.366;2023-06-24T04:07:38;94996.84;;;24.57;55.64
40205;BME280;26963;42.666;23.366;2023-06-24T04:10:05;95066.78;;;25.14;55.23
40205;BME280;26963;42.666;23.366;2023-06-24T04:12:36;95066.19;;;25.53;54.82
40205;BME280;26963;42.666;23.366;2023-06-24T04:15:03;95074.19;;;26.05;53.35
40205;BME280;26963;42.666;23.366;2023-06-24T04:17:29;95051.09;;;26.61;50.67
40205;BME280;26963;42.666;23.366;2023-06-24T04:19:55;94998.91;;;26.97;49.08
40205;BME280;26963;42.666;23.366;2023-06-24T04:22:21;95060.38;;;28.21;46.70
40205;BME280;26963;42.666;23.366;2023-06-24T04:24:46;95003.63;;;28.41;45.11
40205;BME280;26963;42.666;23.366;2023-06-24T04:27:12;94993.34;;;28.91;43.62
40205;BME280;26963;42.666;23.366;2023-06-24T04:29:37;95002.31;;;29.33;42.40
40205;BME280;26963;42.666;23.366;2023-06-24T04:32:03;95030.50;;;29.75;41.54
40205;BME280;26963;42.666;23.366;2023-06-24T04:34:29;95034.88;;;30.04;40.96
40205;BME280;26963;42.666;23.366;2023-06-24T04:36:55;95032.81;;;30.35;40.16
40205;BME280;26963;42.666;23.366;2023-06-24T04:39:21;94996.84;;;30.66;38.93
40205;BME280;26963;42.666;23.366;2023-06-24T04:41:46;95032.84;;;31.47;38.24
40205;BME280;26963;42.666;23.366;2023-06-24T04:44:13;95042.69;;;32.04;36.45
40205;BME280;26963;42.666;23.366;2023-06-24T04:46:39;95047.06;;;32.55;35.72
40205;BME280;26963;42.666;23.366;2023-06-24T04:49:06;95017.53;;;32.81;34.62
40205;BME280;26963;42.666;23.366;2023-06-24T04:51:32;95052.72;;;33.30;33.07
40205;BME280;26963;42.666;23.366;2023-06-24T04:53:58;95015.03;;;33.46;32.80
40205;BME280;26963;42.666;23.366;2023-06-24T04:56:24;94971.97;;;33.54;32.39
40205;BME280;26963;42.666;23.366;2023-06-24T04:58:50;95021.75;;;33.32;33.07
40205;BME280;26963;42.666;23.366;2023-06-24T05:01:17;95030.09;;;32.20;35.46
40205;BME280;26963;42.666;23.366;2023-06-24T05:03:42;95055.53;;;31.38;37.35
40205;BME280;26963;42.666;23.366;2023-06-24T05:06:08;95010.25;;;30.17;38.84
40205;BME280;26963;42.666;23.366;2023-06-24T05:08:33;94967.66;;;29.01;39.60
40205;BME280;26963;42.666;23.366;2023-06-24T05:10:59;95064.84;;;28.98;40.49
40205;BME280;26963;42.666;23.366;2023-06-24T05:13:27;95011.69;;;28.14;42.26
40205;BME280;26963;42.666;23.366;2023-06-24T05:15:52;95063.63;;;28.05;43.60
40205;BME280;26963;42.666;23.366;2023-06-24T05:18:18;95059.84;;;27.73;43.83
40205;BME280;26963;42.666;23.366;2023-06-24T05:20:43;95050.56;;;27.42;44.57
40205;BME280;26963;42.666;23.366;2023-06-24T05:23:09;94988.38;;;26.84;45.46
40205;BME280;26963;42.666;23.366;2023-06-24T05:25:34;94983.28;;;26.65;46.02
40205;BME280;26963;42.666;23.366;2023-06-24T05:28:00;95030.72;;;26.76;47.50
40205;BME280;26963;42.666;23.366;2023-06-24T05:30:26;95047.16;;;26.69;48.12
40205;BME280;26963;42.666;23.366;2023-06-24T05:32:51;95029.19;;;26.43;48.04
40205;BME280;26963;42.666;23.366;2023-06-24T05:35:17;94989.59;;;26.11;48.45
40205;BME280;26963;42.666;23.366;2023-06-24T05:37:43;94988.03;;;26.14;49.18
40205;BME280;26963;42.666;23.366;2023-06-24T05:40:09;95053.84;;;26.50;49.24
40205;BME280;26963;42.666;23.366;2023-06-24T05:42:35;95049.94;;;26.40;50.02
40205;BME280;26963;42.666;23.366;2023-06-24T05:45:00;94986.44;;;25.91;50.44
40205;BME280;26963;42.666;23.366;2023-06-24T05:47:26;95031.50;;;26.15;51.13
40205;BME280;26963;42.666;23.366;2023-06-24T05:49:51;95050.72;;;26.30;51.45
40205;BME280;26963;42.666;23.366;2023-06-24T05:52:17;95036.59;;;26.20;52.15
40205;BME280;26963;42.666;23.366;2023-06-24T05:54:42;95051.50;;;26.27;51.66
40205;BME280;26963;42.666;23.366;2023-06-24T05:57:08;95044.44;;;26.29;51.73
40205;BME280;26963;42.666;23.366;2023-06-24T05:59:34;95029.56;;;26.16;52.39
40205;BME280;26963;42.666;23.366;2023-06-24T06:01:59;95034.25;;;26.23;52.44
40205;BME280;26963;42.666;23.366;2023-06-24T06:04:27;95052.28;;;26.38;51.31
40205;BME280;26963;42.666;23.366;2023-06-24T06:06:53;95041.31;;;26.42;51.47
40205;BME280;26963;42.666;23.366;2023-06-24T06:09:21;95007.63;;;26.37;50.98
40205;BME280;26963;42.666;23.366;2023-06-24T06:11:47;95030.31;;;26.63;50.56
40205;BME280;26963;42.666;23.366;2023-06-24T06:14:13;95031.88;;;26.75;50.35
40205;BME280;26963;42.666;23.366;2023-06-24T06:16:39;94954.25;;;26.85;49.76
40205;BME280;26963;42.666;23.366;2023-06-24T06:19:04;95024.59;;;28.73;45.89
40205;BME280;26963;42.666;23.366;2023-06-24T06:21:31;95027.44;;;31.19;40.13
40205;BME280;26963;42.666;23.366;2023-06-24T06:23:56;95022.03;;;33.21;35.22
40205;BME280;26963;42.666;23.366;2023-06-24T06:26:22;95021.25;;;34.79;32.02
40205;BME280;26963;42.666;23.366;2023-06-24T06:28:47;95029.09;;;36.45;29.77
40205;BME280;26963;42.666;23.366;2023-06-24T06:31:13;94984.56;;;37.29;27.30
40205;BME280;26963;42.666;23.366;2023-06-24T06:33:39;95011.47;;;38.55;26.07
40205;BME280;26963;42.666;23.366;2023-06-24T06:36:05;95011.00;;;39.59;25.21
40205;BME280;26963;42.666;23.366;2023-06-24T06:38:33;95006.81;;;40.50;23.64
40205;BME280;26963;42.666;23.366;2023-06-24T06:40:59;95005.53;;;40.86;22.30
40205;BME280;26963;42.666;23.366;2023-06-24T06:43:24;94914.50;;;40.25;21.99
40205;BME280;26963;42.666;23.366;2023-06-24T06:45:50;95036.47;;;41.13;21.75
40205;BME280;26963;42.666;23.366;2023-06-24T06:48:15;95036.22;;;41.37;22.11
40205;BME280;26963;42.666;23.366;2023-06-24T06:50:41;95029.97;;;42.00;21.96
40205;BME280;26963;42.666;23.366;2023-06-24T06:53:06;94991.09;;;42.31;21.12
40205;BME280;26963;42.666;23.366;2023-06-24T06:55:32;95034.81;;;43.36;19.75
40205;BME280;26963;42.666;23.366;2023-06-24T06:57:57;94997.25;;;43.56;19.56
40205;BME280;26963;42.666;23.366;2023-06-24T07:00:23;95034.16;;;44.26;18.74
40205;BME280;26963;42.666;23.366;2023-06-24T07:02:48;95037.91;;;44.85;18.53
40205;BME280;26963;42.666;23.366;2023-06-24T07:05:14;95042.19;;;45.03;17.89
40205;BME280;26963;42.666;23.366;2023-06-24T07:07:40;95009.88;;;45.04;17.58
40205;BME280;26963;42.666;23.366;2023-06-24T07:10:06;95035.88;;;45.44;17.49
40205;BME280;26963;42.666;23.366;2023-06-24T07:12:32;95042.16;;;45.68;17.43
40205;BME280;26963;42.666;23.366;2023-06-24T07:14:57;95044.03;;;45.96;17.73
40205;BME280;26963;42.666;23.366;2023-06-24T07:17:23;95045.78;;;46.35;16.99
40205;BME280;26963;42.666;23.366;2023-06-24T07:19:48;95004.53;;;46.45;16.90
40205;BME280;26963;42.666;23.366;2023-06-24T07:22:14;95046.91;;;47.00;16.63
40205;BME280;26963;42.666;23.366;2023-06-24T07:24:41;95013.56;;;47.12;16.61
40205;BME280;26963;42.666;23.366;2023-06-24T07:27:07;95000.84;;;47.38;16.10
40205;BME280;26963;42.666;23.366;2023-06-24T07:29:33;95042.34;;;47.74;15.55
40205;BME280;26963;42.666;23.366;2023-06-24T07:31:58;95041.88;;;47.12;16.14
40205;BME280;26963;42.666;23.366;2023-06-24T07:34:24;95001.69;;;46.20;16.66
40205;BME280;26963;42.666;23.366;2023-06-24T07:36:50;95022.78;;;46.44;16.99
40205;BME280;26963;42.666;23.366;2023-06-24T07:39:16;95039.69;;;46.80;16.60
40205;BME280;26963;42.666;23.366;2023-06-24T07:41:42;95045.78;;;46.35;16.90
40205;BME280;26963;42.666;23.366;2023-06-24T07:44:08;95030.88;;;46.34;17.10
40205;BME280;26963;42.666;23.366;2023-06-24T07:46:34;95031.28;;;46.44;16.94
40205;BME280;26963;42.666;23.366;2023-06-24T07:49:00;95012.78;;;46.43;16.36
40205;BME280;26963;42.666;23.366;2023-06-24T07:51:25;95028.34;;;46.31;16.30
40205;BME280;26963;42.666;23.366;2023-06-24T07:53:51;94975.16;;;45.99;17.19
40205;BME280;26963;42.666;23.366;2023-06-24T07:56:17;95038.00;;;46.41;16.66
40205;BME280;26963;42.666;23.366;2023-06-24T07:58:43;95008.34;;;45.87;16.86
40205;BME280;26963;42.666;23.366;2023-06-24T08:01:08;95034.28;;;46.21;16.77
40205;BME280;26963;42.666;23.366;2023-06-24T08:03:34;95013.25;;;46.47;16.79
40205;BME280;26963;42.666;23.366;2023-06-24T08:06:02;95033.88;;;46.67;16.35
40205;BME280;26963;42.666;23.366;2023-06-24T08:08:27;95013.50;;;46.74;16.41
40205;BME280;26963;42.666;23.366;2023-06-24T08:10:53;95048.56;;;46.90;16.80
40205;BME280;26963;42.666;23.366;2023-06-24T08:13:18;95003.09;;;46.82;16.21
40205;BME280;26963;42.666;23.366;2023-06-24T08:15:44;95044.97;;;47.14;16.03
40205;BME280;26963;42.666;23.366;2023-06-24T08:18:10;95040.44;;;47.25;16.08
40205;BME280;26963;42.666;23.366;2023-06-24T08:20:36;95022.69;;;46.80;15.97
40205;BME280;26963;42.666;23.366;2023-06-24T08:23:01;95042.13;;;46.89;16.00
40205;BME280;26963;42.666;23.366;2023-06-24T08:25:27;95015.44;;;46.85;16.29
40205;BME280;26963;42.666;23.366;2023-06-24T08:27:53;95032.41;;;47.29;15.90
40205;BME280;26963;42.666;23.366;2023-06-24T08:30:18;95032.22;;;47.02;16.16
40205;BME280;26963;42.666;23.366;2023-06-24T08:32:44;95035.44;;;46.43;16.98
40205;BME280;26963;42.666;23.366;2023-06-24T08:35:10;95029.16;;;46.50;16.65
40205;BME280;26963;42.666;23.366;2023-06-24T08:37:37;94982.50;;;46.07;16.89
40205;BME280;26963;42.666;23.366;2023-06-24T08:40:03;94978.28;;;46.20;16.79
40205;BME280;26963;42.666;23.366;2023-06-24T08:42:32;94983.53;;;46.60;16.33
40205;BME280;26963;42.666;23.366;2023-06-24T08:44:57;95019.69;;;46.72;16.67
40205;BME280;26963;42.666;23.366;2023-06-24T08:47:24;95013.91;;;46.29;16.67
40205;BME280;26963;42.666;23.366;2023-06-24T08:49:57;95014.88;;;45.76;17.21
40205;BME280;26963;42.666;23.366;2023-06-24T08:52:30;94966.88;;;45.28;17.47
40205;BME280;26963;42.666;23.366;2023-06-24T08:54:57;94947.94;;;45.23;16.73
40205;BME280;26963;42.666;23.366;2023-06-24T08:57:24;94999.22;;;45.75;16.78
40205;BME280;26963;42.666;23.366;2023-06-24T08:59:49;94951.06;;;45.14;17.05
40205;BME280;26963;42.666;23.366;2023-06-24T09:02:15;94983.78;;;44.87;17.53
40205;BME280;26963;42.666;23.366;2023-06-24T09:04:40;94999.56;;;45.18;16.92
40205;BME280;26963;42.666;23.366;2023-06-24T09:07:06;94954.59;;;44.61;17.69
40205;BME280;26963;42.666;23.366;2023-06-24T09:09:32;94945.22;;;44.25;18.03
40205;BME280;26963;42.666;23.366;2023-06-24T09:11:59;94999.91;;;44.98;16.63
40205;BME280;26963;42.666;23.366;2023-06-24T09:14:26;94954.81;;;44.69;17.71
40205;BME280;26963;42.666;23.366;2023-06-24T09:16:54;94912.06;;;44.54;17.32
40205;BME280;26963;42.666;23.366;2023-06-24T09:19:24;94982.38;;;45.05;16.36
40205;BME280;26963;42.666;23.366;2023-06-24T09:21:50;94983.91;;;44.47;17.44
40205;BME280;26963;42.666;23.366;2023-06-24T09:24:18;94947.31;;;43.67;18.23
40205;BME280;26963;42.666;23.366;2023-06-24T09:26:44;95000.84;;;43.62;17.74
40205;BME280;26963;42.666;23.366;2023-06-24T09:29:13;95003.81;;;43.30;19.42
40205;BME280;26963;42.666;23.366;2023-06-24T09:31:50;94998.84;;;42.47;20.15
40205;BME280;26963;42.666;23.366;2023-06-24T09:34:21;94987.78;;;40.95;21.83
40205;BME280;26963;42.666;23.366;2023-06-24T09:36:52;94913.28;;;39.01;23.09
40205;BME280;26963;42.666;23.366;2023-06-24T09:39:18;94945.59;;;38.05;24.30
40205;BME280;26963;42.666;23.366;2023-06-24T09:41:48;94950.31;;;37.37;25.80
40205;BME280;26963;42.666;23.366;2023-06-24T09:44:15;94959.53;;;36.92;26.66
40205;BME280;26963;42.666;23.366;2023-06-24T09:46:42;94993.22;;;36.47;27.42
40205;BME280;26963;42.666;23.366;2023-06-24T09:49:08;94986.72;;;36.00;27.59
40205;BME280;26963;42.666;23.366;2023-06-24T09:51:37;95016.66;;;35.65;28.47
40205;BME280;26963;42.666;23.366;2023-06-24T09:54:05;94939.56;;;34.76;29.02
40205;BME280;26963;42.666;23.366;2023-06-24T09:56:34;94993.88;;;34.90;29.70
40205;BME280;26963;42.666;23.366;2023-06-24T09:59:00;94985.41;;;34.59;30.91
40205;BME280;26963;42.666;23.366;2023-06-24T10:01:27;94977.91;;;34.34;30.60
40205;BME280;26963;42.666;23.366;2023-06-24T10:03:53;94934.28;;;33.95;31.33
40205;BME280;26963;42.666;23.366;2023-06-24T10:06:19;94980.34;;;34.06;31.70
40205;BME280;26963;42.666;23.366;2023-06-24T10:08:45;94980.25;;;33.96;32.34
40205;BME280;26963;42.666;23.366;2023-06-24T10:11:10;94956.94;;;33.81;31.81
40205;BME280;26963;42.666;23.366;2023-06-24T10:13:36;94939.28;;;33.75;32.25
40205;BME280;26963;42.666;23.366;2023-06-24T10:16:02;94971.47;;;33.98;31.66
40205;BME280;26963;42.666;23.366;2023-06-24T10:20:56;94951.47;;;33.52;32.56
40205;BME280;26963;42.666;23.366;2023-06-24T10:23:51;94943.34;;;33.31;33.94
40205;BME280;26963;42.666;23.366;2023-06-24T10:26:23;94901.00;;;32.89;33.48
40205;BME280;26963;42.666;23.366;2023-06-24T10:29:32;94947.16;;;33.08;33.60
40205;BME280;26963;42.666;23.366;2023-06-24T10:32:02;94941.44;;;32.86;33.31
40205;BME280;26963;42.666;23.366;2023-06-24T10:34:31;94922.06;;;32.69;33.26
40205;BME280;26963;42.666;23.366;2023-06-24T10:37:11;94938.50;;;32.77;34.37
40205;BME280;26963;42.666;23.366;2023-06-24T10:44:49;94912.59;;;32.38;34.09
40205;BME280;26963;42.666;23.366;2023-06-24T10:47:16;94900.59;;;32.44;33.81
40205;BME280;26963;42.666;23.366;2023-06-24T10:49:41;94910.06;;;32.60;34.64
40205;BME280;26963;42.666;23.366;2023-06-24T10:52:08;94894.38;;;32.69;34.00
40205;BME280;26963;42.666;23.366;2023-06-24T10:54:35;94879.91;;;32.62;34.47
40205;BME280;26963;42.666;23.366;2023-06-24T10:57:01;94900.97;;;32.59;32.96
40205;BME280;26963;42.666;23.366;2023-06-24T10:59:26;94891.22;;;32.55;33.50
40205;BME280;26963;42.666;23.366;2023-06-24T11:01:55;94887.09;;;32.59;32.48
40205;BME280;26963;42.666;23.366;2023-06-24T11:04:21;94898.78;;;32.67;32.25
40205;BME280;26963;42.666;23.366;2023-06-24T11:07:02;94859.34;;;32.33;33.65
40205;BME280;26963;42.666;23.366;2023-06-24T11:09:27;94897.88;;;32.57;33.23
40205;BME280;26963;42.666;23.366;2023-06-24T11:11:53;94870.53;;;32.43;32.95
40205;BME280;26963;42.666;23.366;2023-06-24T11:14:22;94882.19;;;32.50;33.24
40205;BME280;26963;42.666;23.366;2023-06-24T11:16:47;94884.69;;;32.61;33.20
40205;BME280;26963;42.666;23.366;2023-06-24T11:19:13;94884.59;;;32.65;34.02
40205;BME280;26963;42.666;23.366;2023-06-24T11:21:39;94880.00;;;32.75;33.54
40205;BME280;26963;42.666;23.366;2023-06-24T11:24:05;94880.34;;;32.90;33.67
40205;BME280;26963;42.666;23.366;2023-06-24T11:26:30;94877.75;;;32.99;32.83
40205;BME280;26963;42.666;23.366;2023-06-24T11:28:56;94898.03;;;33.09;33.08
40205;BME280;26963;42.666;23.366;2023-06-24T11:31:28;94856.22;;;32.90;31.53
40205;BME280;26963;42.666;23.366;2023-06-24T11:33:53;94893.84;;;33.17;31.54
40205;BME280;26963;42.666;23.366;2023-06-24T11:36:19;94895.16;;;33.25;31.66
40205;BME280;26963;42.666;23.366;2023-06-24T11:38:48;94835.94;;;32.93;30.85
40205;BME280;26963;42.666;23.366;2023-06-24T11:41:14;94840.91;;;32.98;29.34
40205;BME280;26963;42.666;23.366;2023-06-24T11:43:46;94875.53;;;33.20;29.99
40205;BME280;26963;42.666;23.366;2023-06-24T11:46:27;94877.19;;;33.17;30.64
40205;BME280;26963;42.666;23.366;2023-06-24T11:49:13;94874.09;;;33.15;31.13
40205;BME280;26963;42.666;23.366;2023-06-24T11:51:49;94859.34;;;33.05;30.46
40205;BME280;26963;42.666;23.366;2023-06-24T11:54:16;94853.75;;;32.92;30.98
40205;BME280;26963;42.666;23.366;2023-06-24T11:56:43;94843.03;;;32.94;31.32
40205;BME280;26963;42.666;23.366;2023-06-24T11:59:21;94842.59;;;33.09;31.92
40205;BME280;26963;42.666;23.366;2023-06-24T12:01:58;94803.56;;;32.90;31.21
40205;BME280;26963;42.666;23.366;2023-06-24T12:04:31;94815.78;;;33.06;32.05
40205;BME280;26963;42.666;23.366;2023-06-24T12:06:58;94831.41;;;33.25;32.37
40205;BME280;26963;42.666;23.366;2023-06-24T12:09:24;94784.06;;;33.07;31.72
40205;BME280;26963;42.666;23.366;2023-06-24T12:11:49;94807.81;;;33.33;32.25
40205;BME280;26963;42.666;23.366;2023-06-24T12:14:15;94813.03;;;33.31;31.85
40205;BME280;26963;42.666;23.366;2023-06-24T12:16:41;94805.13;;;33.17;31.72
40205;BME280;26963;42.666;23.366;2023-06-24T12:19:07;94763.44;;;32.82;32.03
40205;BME280;26963;42.666;23.366;2023-06-24T12:21:34;94812.09;;;32.96;31.66
40205;BME280;26963;42.666;23.366;2023-06-24T12:23:59;94816.69;;;32.73;31.98
40205;BME280;26963;42.666;23.366;2023-06-24T12:26:25;94800.47;;;32.46;31.78
40205;BME280;26963;42.666;23.366;2023-06-24T12:28:53;94806.19;;;32.39;33.03
40205;BME280;26963;42.666;23.366;2023-06-24T12:31:19;94805.63;;;32.31;33.13
40205;BME280;26963;42.666;23.366;2023-06-24T12:33:45;94764.34;;;31.91;33.61
40205;BME280;26963;42.666;23.366;2023-06-24T12:36:11;94772.41;;;31.85;34.48
40205;BME280;26963;42.666;23.366;2023-06-24T12:38:36;94820.97;;;32.02;34.40
40205;BME280;26963;42.666;23.366;2023-06-24T12:41:02;94827.91;;;31.94;34.65
40205;BME280;26963;42.666;23.366;2023-06-24T12:43:27;94819.00;;;31.86;34.50
40205;BME280;26963;42.666;23.366;2023-06-24T12:45:53;94853.75;;;31.87;34.50
40205;BME280;26963;42.666;23.366;2023-06-24T12:48:18;94854.22;;;31.69;34.62
40205;BME280;26963;42.666;23.366;2023-06-24T12:50:44;94874.75;;;31.52;34.30
40205;BME280;26963;42.666;23.366;2023-06-24T12:53:09;94860.53;;;31.33;34.96
40205;BME280;26963;42.666;23.366;2023-06-24T12:55:39;94880.84;;;31.43;34.78
40205;BME280;26963;42.666;23.366;2023-06-24T12:58:04;94841.38;;;31.06;35.03
40205;BME280;26963;42.666;23.366;2023-06-24T13:00:30;94889.59;;;31.42;34.45
40205;BME280;26963;42.666;23.366;2023-06-24T13:02:55;94888.34;;;31.43;34.49
40205;BME280;26963;42.666;23.366;2023-06-24T13:05:21;94876.88;;;31.44;35.35
40205;BME280;26963;42.666;23.366;2023-06-24T13:07:47;94866.94;;;31.30;35.77
40205;BME280;26963;42.666;23.366;2023-06-24T13:10:12;94821.75;;;31.00;36.10